createdAt,value
2018-02-09T00:01:12.972Z,99.47
2018-02-09T00:03:40.714Z,103.47
2018-02-09T00:06:08.276Z,108.68
2018-02-09T00:08:35.976Z,108.22
2018-02-09T00:11:03.566Z,98.10
2018-02-09T00:13:31.206Z,90.43
2018-02-09T00:15:59.737Z,95.57
2018-02-09T00:18:27.321Z,92.62
2018-02-09T00:20:54.908Z,98.15
2018-02-09T00:23:23.233Z,93.15
2018-02-09T00:25:50.982Z,87.10
2018-02-09T00:28:18.551Z,88.05
2018-02-09T00:30:46.121Z,89.10
2018-02-09T00:33:13.695Z,101.55
2018-02-09T00:35:41.325Z,99.85
2018-02-09T00:38:08.873Z,84.43
2018-02-09T00:40:36.453Z,99.00
2018-02-09T00:43:04.114Z,95.00
2018-02-09T00:45:31.663Z,83.95
2018-02-09T00:47:59.277Z,99.53
2018-02-09T00:50:26.828Z,99.28
2018-02-09T00:52:54.389Z,93.97
2018-02-09T00:55:22.054Z,92.30
2018-02-09T00:57:49.628Z,87.53
2018-02-09T01:00:17.181Z,95.70
2018-02-09T01:02:44.753Z,100.87
2018-02-09T01:05:12.358Z,93.30
2018-02-09T01:07:39.901Z,99.93
2018-02-09T01:10:08.241Z,102.10
2018-02-09T01:12:35.806Z,91.45
2018-02-09T01:15:03.386Z,103.80
2018-02-09T01:17:31.713Z,98.70
2018-02-09T01:19:59.410Z,92.53
2018-02-09T01:22:26.982Z,93.20
2018-02-09T01:24:54.536Z,96.35
2018-02-09T01:27:22.109Z,92.97
2018-02-09T01:29:50.451Z,87.07
2018-02-09T01:32:18.165Z,98.10
2018-02-09T01:34:46.525Z,87.68
2018-02-09T01:37:14.882Z,95.43
2018-02-09T01:39:42.461Z,100.05
2018-02-09T01:42:10.040Z,95.53
2018-02-09T01:44:38.464Z,106.82
2018-02-09T01:47:06.058Z,102.65
2018-02-09T01:49:33.619Z,91.25
2018-02-09T01:52:01.169Z,94.40
2018-02-09T01:54:28.726Z,98.22
2018-02-09T01:56:56.296Z,91.03
2018-02-09T01:59:24.074Z,88.57
2018-02-09T02:01:51.630Z,101.45
2018-02-09T02:04:19.218Z,93.62
2018-02-09T02:06:46.795Z,82.55
2018-02-09T02:09:14.385Z,94.37
2018-02-09T02:11:42.028Z,92.70
2018-02-09T02:14:09.573Z,103.20
2018-02-09T02:16:37.214Z,94.13
2018-02-09T02:19:05.640Z,96.20
2018-02-09T02:21:33.396Z,92.68
2018-02-09T02:24:00.953Z,107.03
2018-02-09T02:26:28.531Z,87.93
2018-02-09T02:28:56.097Z,89.72
2018-02-09T02:31:23.706Z,100.55
2018-02-09T02:33:52.115Z,95.45
2018-02-09T02:36:19.783Z,92.65
2018-02-09T02:38:47.366Z,91.70
2018-02-09T02:41:14.951Z,97.80
2018-02-09T02:43:42.497Z,87.30
2018-02-09T02:46:10.075Z,97.47
2018-02-09T02:48:37.634Z,96.68
2018-02-09T02:51:05.443Z,101.70
2018-02-09T02:53:33.012Z,93.35
2018-02-09T02:56:00.580Z,90.12
2018-02-09T02:58:28.164Z,87.68
2018-02-09T03:00:55.872Z,96.05
2018-02-09T03:03:23.432Z,86.18
2018-02-09T03:05:51.063Z,99.55
2018-02-09T03:08:19.450Z,94.60
2018-02-09T03:10:47.770Z,101.22
2018-02-09T03:13:15.942Z,84.05
2018-02-09T03:15:43.513Z,99.72
2018-02-09T03:18:11.198Z,88.45
2018-02-09T03:20:38.757Z,96.57
2018-02-09T03:23:06.329Z,97.20
2018-02-09T03:25:33.913Z,99.68
2018-02-09T03:28:02.480Z,95.55
2018-02-09T03:30:30.849Z,92.68
2018-02-09T03:32:58.407Z,83.47
2018-02-09T03:35:26.114Z,91.18
2018-02-09T03:37:54.481Z,92.68
2018-02-09T03:40:22.812Z,95.25
2018-02-09T03:42:50.422Z,90.28
2018-02-09T03:45:18.762Z,95.43
2018-02-09T03:47:46.329Z,96.07
2018-02-09T03:50:13.914Z,84.55
2018-02-09T03:52:42.389Z,91.32
2018-02-09T03:55:09.950Z,92.88
2018-02-09T03:57:38.289Z,87.97
2018-02-09T04:00:05.842Z,91.15
2018-02-09T04:02:33.448Z,84.80
2018-02-09T04:05:01.020Z,88.35
2018-02-09T04:07:29.566Z,88.57
2018-02-09T04:09:57.117Z,95.38
2018-02-09T04:12:24.713Z,86.68
2018-02-09T04:14:52.271Z,81.70
2018-02-09T04:17:20.602Z,93.05
2018-02-09T04:19:48.157Z,92.53
2018-02-09T04:22:15.822Z,105.65
2018-02-09T04:24:44.301Z,92.80
2018-02-09T04:27:11.859Z,88.53
2018-02-09T04:29:39.437Z,89.30
2018-02-09T04:32:07.002Z,84.20
2018-02-09T04:34:34.560Z,88.93
2018-02-09T04:37:02.159Z,96.82
2018-02-09T04:39:29.721Z,91.65
2018-02-09T04:41:57.270Z,85.45
2018-02-09T04:44:24.865Z,87.70
2018-02-09T04:46:52.416Z,91.82
2018-02-09T04:49:20.833Z,86.37
2018-02-09T04:51:48.393Z,88.07
2018-02-09T04:54:15.960Z,86.43
2018-02-09T04:56:43.518Z,90.78
2018-02-09T04:59:11.081Z,84.20
2018-02-09T05:01:38.860Z,86.82
2018-02-09T05:04:06.448Z,94.97
2018-02-09T05:06:34.118Z,87.22
2018-02-09T05:09:01.674Z,77.87
2018-02-09T05:11:29.248Z,94.30
2018-02-09T05:13:57.566Z,83.53
2018-02-09T05:16:29.594Z,85.25
2018-02-09T05:18:57.925Z,79.35
2018-02-09T05:21:25.585Z,86.05
2018-02-09T05:23:53.260Z,93.12
2018-02-09T05:26:20.838Z,87.45
2018-02-09T05:28:48.413Z,79.72
2018-02-09T05:31:16.775Z,98.80
2018-02-09T05:33:44.363Z,76.45
2018-02-09T05:36:12.697Z,84.50
2018-02-09T05:38:40.246Z,75.50
2018-02-09T05:41:07.863Z,86.12
2018-02-09T05:43:36.349Z,81.97
2018-02-09T05:46:04.684Z,82.65
2018-02-09T05:48:32.360Z,80.10
2018-02-09T05:51:00.014Z,77.75
2018-02-09T05:53:27.564Z,88.03
2018-02-09T05:55:55.160Z,76.18
2018-02-09T05:58:23.529Z,87.70
2018-02-09T06:00:51.237Z,88.97
2018-02-09T06:03:18.954Z,87.57
2018-02-09T06:05:46.562Z,80.82
2018-02-09T06:08:14.159Z,87.07
2018-02-09T06:10:41.885Z,79.20
2018-02-09T06:13:09.594Z,82.32
2018-02-09T06:15:37.294Z,81.03
2018-02-09T06:18:05.080Z,76.55
2018-02-09T06:20:32.672Z,81.12
2018-02-09T06:23:00.245Z,85.87
2018-02-09T06:25:28.019Z,87.40
2018-02-09T06:27:56.731Z,83.22
2018-02-09T06:30:25.288Z,77.62
2018-02-09T06:32:52.860Z,81.07
2018-02-09T06:35:20.446Z,82.62
2018-02-09T06:37:47.986Z,83.62
2018-02-09T06:40:16.472Z,88.07
2018-02-09T06:42:45.069Z,94.53
2018-02-09T06:45:12.698Z,94.05
2018-02-09T06:47:40.252Z,91.30
2018-02-09T06:50:07.832Z,92.95
2018-02-09T06:52:36.207Z,85.03
2018-02-09T06:55:04.294Z,91.32
2018-02-09T06:57:32.011Z,93.12
2018-02-09T06:59:59.605Z,91.97
2018-02-09T07:02:27.426Z,92.97
2018-02-09T07:04:55.147Z,82.32
2018-02-09T07:07:24.000Z,85.32
2018-02-09T07:09:51.748Z,86.90
2018-02-09T07:12:19.394Z,87.35
2018-02-09T07:14:46.955Z,95.43
2018-02-09T07:17:14.669Z,92.88
2018-02-09T07:19:43.036Z,92.95
2018-02-09T07:22:10.592Z,110.88
2018-02-09T07:24:38.157Z,86.72
2018-02-09T07:27:05.733Z,94.53
2018-02-09T07:29:33.479Z,88.25
2018-02-09T07:32:01.122Z,93.60
2018-02-09T07:34:28.735Z,84.45
2018-02-09T07:36:56.314Z,91.47
2018-02-09T07:39:23.931Z,90.25
2018-02-09T07:41:51.485Z,86.07
2018-02-09T07:44:19.053Z,86.30
2018-02-09T07:46:46.787Z,84.22
2018-02-09T07:49:25.072Z,87.32
2018-02-09T07:51:53.381Z,83.85
2018-02-09T07:54:20.941Z,78.25
2018-02-09T07:56:48.555Z,83.25
2018-02-09T07:59:16.937Z,77.80
2018-02-09T08:01:45.394Z,79.35
2018-02-09T08:04:14.059Z,88.70
2018-02-09T08:06:41.624Z,69.70
2018-02-09T08:09:09.291Z,83.87
2018-02-09T08:11:36.887Z,68.78
2018-02-09T08:14:05.205Z,68.47
2018-02-09T08:16:32.832Z,77.95
2018-02-09T08:19:01.259Z,73.78
2018-02-09T08:21:28.831Z,76.68
2018-02-09T08:23:56.416Z,61.97
2018-02-09T08:26:23.983Z,60.38
2018-02-09T08:28:51.774Z,65.65
2018-02-09T08:31:19.413Z,54.78
2018-02-09T08:33:47.797Z,68.40
2018-02-09T08:36:15.378Z,68.60
2018-02-09T08:38:42.990Z,77.47
2018-02-09T08:41:10.727Z,70.32
2018-02-09T08:43:38.306Z,74.18
2018-02-09T08:46:05.985Z,82.47
2018-02-09T08:48:34.364Z,79.75
2018-02-09T08:51:02.062Z,80.53
2018-02-09T08:53:30.418Z,73.53
2018-02-09T08:55:58.991Z,77.25
2018-02-09T08:58:26.579Z,78.43
2018-02-09T09:00:55.092Z,75.35
2018-02-09T09:03:22.671Z,83.45
2018-02-09T09:05:50.258Z,84.85
2018-02-09T09:08:17.861Z,90.40
2018-02-09T09:10:45.435Z,81.68
2018-02-09T09:13:13.015Z,80.32
2018-02-09T09:15:40.661Z,83.32
2018-02-09T09:18:08.270Z,84.57
2018-02-09T09:20:35.823Z,90.28
2018-02-09T09:23:03.444Z,79.85
2018-02-09T09:25:31.061Z,84.35
2018-02-09T09:27:58.612Z,86.55
2018-02-09T09:30:26.291Z,81.18
2018-02-09T09:32:54.709Z,80.10
2018-02-09T09:35:22.322Z,89.82
2018-02-09T09:37:49.918Z,82.60
2018-02-09T09:40:17.500Z,88.43
2018-02-09T09:42:45.067Z,85.45
2018-02-09T09:45:12.640Z,84.25
2018-02-09T09:47:40.221Z,81.87
2018-02-09T09:50:07.818Z,90.05
2018-02-09T09:52:35.388Z,90.25
2018-02-09T09:55:03.037Z,72.65
2018-02-09T09:57:30.737Z,75.95
2018-02-09T09:59:59.122Z,76.47
2018-02-09T10:02:39.675Z,78.05
2018-02-09T10:05:08.143Z,96.12
2018-02-09T10:07:35.715Z,72.78
2018-02-09T10:10:04.041Z,77.28
2018-02-09T10:12:31.605Z,64.00
2018-02-09T10:14:59.158Z,75.22
2018-02-09T10:17:26.962Z,73.05
2018-02-09T10:19:54.825Z,63.80
2018-02-09T10:22:22.394Z,68.93
2018-02-09T10:24:50.782Z,79.97
2018-02-09T10:27:18.957Z,70.10
2018-02-09T10:29:46.618Z,71.82
2018-02-09T10:32:14.197Z,69.75
2018-02-09T10:34:41.753Z,75.95
2018-02-09T10:37:09.340Z,63.20
2018-02-09T10:39:36.901Z,62.92
2018-02-09T10:42:04.472Z,72.75
2018-02-09T10:44:32.037Z,73.80
2018-02-09T10:47:00.604Z,63.00
2018-02-09T10:49:28.177Z,61.05
2018-02-09T10:51:55.835Z,67.07
2018-02-09T10:54:23.388Z,67.62
2018-02-09T10:56:50.940Z,65.62
2018-02-09T10:59:18.518Z,67.62
2018-02-09T11:01:46.078Z,74.60
2018-02-09T11:04:13.761Z,61.15
2018-02-09T11:06:41.437Z,59.55
2018-02-09T11:09:09.010Z,66.18
2018-02-09T11:11:36.565Z,67.53
2018-02-09T11:14:04.185Z,61.33
2018-02-09T11:16:31.769Z,65.18
2018-02-09T11:18:59.336Z,62.25
2018-02-09T11:21:26.985Z,68.53
2018-02-09T11:23:54.533Z,66.25
2018-02-09T11:26:23.157Z,60.30
2018-02-09T11:28:50.724Z,53.47
2018-02-09T11:31:18.318Z,65.12
2018-02-09T11:33:46.657Z,61.55
2018-02-09T11:36:14.230Z,60.45
2018-02-09T11:38:41.801Z,61.63
2018-02-09T11:41:10.393Z,63.20
2018-02-09T11:43:38.738Z,63.38
2018-02-09T11:46:06.333Z,72.05
2018-02-09T11:48:34.679Z,70.70
2018-02-09T11:51:02.258Z,60.60
2018-02-09T11:53:29.875Z,56.47
2018-02-09T11:55:57.474Z,60.85
2018-02-09T11:58:25.073Z,67.93
2018-02-09T12:00:53.485Z,62.25
2018-02-09T12:03:21.368Z,59.78
2018-02-09T12:05:50.778Z,65.40
2018-02-09T12:08:19.112Z,61.92
2018-02-09T12:10:46.695Z,57.03
2018-02-09T12:13:14.338Z,55.88
2018-02-09T12:15:41.925Z,62.75
2018-02-09T12:18:10.395Z,58.33
2018-02-09T12:20:37.966Z,64.97
2018-02-09T12:23:05.554Z,63.85
2018-02-09T12:25:33.302Z,67.70
2018-02-09T12:28:01.674Z,67.72
2018-02-09T12:30:30.061Z,60.60
2018-02-09T12:32:58.630Z,59.33
2018-02-09T12:35:26.271Z,66.78
2018-02-09T12:37:53.845Z,60.10
2018-02-09T12:40:21.391Z,54.85
2018-02-09T12:42:48.995Z,57.60
2018-02-09T12:45:17.313Z,58.70
2018-02-09T12:47:44.960Z,46.25
2018-02-09T12:50:12.805Z,60.15
2018-02-09T12:52:41.152Z,55.35
2018-02-09T12:55:09.422Z,56.03
2018-02-09T12:57:37.833Z,59.30
2018-02-09T13:00:05.416Z,58.87
2018-02-09T13:02:33.759Z,59.85
2018-02-09T13:05:01.303Z,46.60
2018-02-09T13:07:28.914Z,64.90
2018-02-09T13:09:57.241Z,61.75
2018-02-09T13:12:49.529Z,57.78
2018-02-09T13:15:17.917Z,59.50
2018-02-09T13:17:46.384Z,60.90
2018-02-09T13:20:16.305Z,55.08
2018-02-09T13:22:55.797Z,57.03
2018-02-09T13:25:33.756Z,61.15
2018-02-09T13:28:01.401Z,55.42
2018-02-09T13:30:28.966Z,59.85
2018-02-09T13:33:08.442Z,53.85
2018-02-09T13:35:36.074Z,59.67
2018-02-09T13:38:03.622Z,44.78
2018-02-09T13:40:31.214Z,53.42
2018-02-09T13:42:58.806Z,58.63
2018-02-09T13:45:26.426Z,59.58
2018-02-09T13:47:53.964Z,64.95
2018-02-09T13:50:21.602Z,59.95
2018-02-09T13:52:49.958Z,65.70
2018-02-09T13:55:18.528Z,56.53
2018-02-09T13:57:46.258Z,61.40
2018-02-09T14:00:13.824Z,59.22
2018-02-09T14:02:41.400Z,58.42
2018-02-09T14:05:09.863Z,52.00
2018-02-09T14:07:37.514Z,42.83
2018-02-09T14:10:05.954Z,53.22
2018-02-09T14:12:43.432Z,55.80
2018-02-09T14:15:11.213Z,44.78
2018-02-09T14:17:38.803Z,44.97
2018-02-09T14:20:06.349Z,41.05
2018-02-09T14:22:33.902Z,37.50
2018-02-09T14:25:01.505Z,41.90
2018-02-09T14:27:29.844Z,35.33
2018-02-09T14:29:57.683Z,37.78
2018-02-09T14:32:25.228Z,39.47
2018-02-09T14:34:52.833Z,40.60
2018-02-09T14:37:20.412Z,39.13
2018-02-09T14:39:47.987Z,42.00
2018-02-09T14:42:15.610Z,34.53
2018-02-09T14:44:43.182Z,35.70
2018-02-09T14:47:10.734Z,34.20
2018-02-09T14:49:38.372Z,37.50
2018-02-09T14:52:06.962Z,38.50
2018-02-09T14:54:34.513Z,33.53
2018-02-09T14:57:02.099Z,36.30
2018-02-09T14:59:29.752Z,35.38
2018-02-09T15:01:57.320Z,34.17
2018-02-09T15:04:24.923Z,24.80
2018-02-09T15:06:53.241Z,32.05
2018-02-09T15:09:20.815Z,35.42
2018-02-09T15:11:48.394Z,31.60
2018-02-09T15:14:15.969Z,29.90
2018-02-09T15:16:43.579Z,33.47
2018-02-09T15:19:11.918Z,31.27
2018-02-09T15:21:39.464Z,33.63
2018-02-09T15:24:07.046Z,30.02
2018-02-09T15:26:34.656Z,31.90
2018-02-09T15:29:02.273Z,28.83
2018-02-09T15:31:29.915Z,27.30
2018-02-09T15:33:57.495Z,31.55
2018-02-09T15:36:25.062Z,35.83
2018-02-09T15:38:52.629Z,25.15
2018-02-09T15:41:20.192Z,28.45
2018-02-09T15:43:47.845Z,32.08
2018-02-09T15:46:15.539Z,31.15
2018-02-09T15:48:43.953Z,32.42
2018-02-09T15:51:11.538Z,25.98
2018-02-09T15:53:39.141Z,32.38
2018-02-09T15:56:07.589Z,28.10
2018-02-09T15:58:35.179Z,38.25
2018-02-09T16:01:03.518Z,25.02
2018-02-09T16:03:31.081Z,27.25
2018-02-09T16:05:58.677Z,31.77
2018-02-09T16:08:26.252Z,26.15
2018-02-09T16:10:54.597Z,25.67
2018-02-09T16:13:22.226Z,27.00
2018-02-09T16:15:49.822Z,28.25
2018-02-09T16:18:17.441Z,30.42
2018-02-09T16:20:45.316Z,27.90
2018-02-09T16:23:12.879Z,30.45
2018-02-09T16:25:40.457Z,31.65
2018-02-09T16:28:08.056Z,33.72
2018-02-09T16:30:35.645Z,36.53
2018-02-09T16:33:03.198Z,38.47
2018-02-09T16:35:30.784Z,32.28
2018-02-09T16:37:58.340Z,27.80
2018-02-09T16:40:26.004Z,30.00
2018-02-09T16:42:53.577Z,33.60
2018-02-09T16:45:21.186Z,26.67
2018-02-09T16:47:48.849Z,30.70
2018-02-09T16:50:17.225Z,31.23
2018-02-09T16:52:44.910Z,33.95
2018-02-09T16:55:13.233Z,24.35
2018-02-09T16:57:40.811Z,33.58
2018-02-09T17:00:08.408Z,31.52
2018-02-09T17:02:36.040Z,27.83
2018-02-09T17:05:03.819Z,28.27
2018-02-09T17:07:31.386Z,32.63
2018-02-09T17:09:59.761Z,30.12
2018-02-09T17:12:27.309Z,30.45
2018-02-09T17:14:54.877Z,32.05
2018-02-09T17:17:22.444Z,35.75
2018-02-09T17:19:50.070Z,27.52
2018-02-09T17:22:17.638Z,36.00
2018-02-09T17:24:45.260Z,35.35
2018-02-09T17:27:13.564Z,30.42
2018-02-09T17:29:41.180Z,37.35
2018-02-09T17:32:09.560Z,36.83
2018-02-09T17:34:37.114Z,30.73
2018-02-09T17:37:04.739Z,37.85
2018-02-09T17:39:32.315Z,35.90
2018-02-09T17:41:59.894Z,35.92
2018-02-09T17:44:27.469Z,33.40
2018-02-09T17:46:55.074Z,29.23
2018-02-09T17:49:23.393Z,33.08
2018-02-09T17:51:51.733Z,37.92
2018-02-09T17:54:19.335Z,24.20
2018-02-09T17:56:46.911Z,30.95
2018-02-09T17:59:14.515Z,29.30
2018-02-09T18:01:42.085Z,38.42
2018-02-09T18:04:09.757Z,30.77
2018-02-09T18:06:37.317Z,30.88
2018-02-09T18:09:05.050Z,26.98
2018-02-09T18:11:32.598Z,29.77
2018-02-09T18:14:00.930Z,26.92
2018-02-09T18:16:28.561Z,30.85
2018-02-09T18:18:56.121Z,30.92
2018-02-09T18:21:23.709Z,27.27
2018-02-09T18:23:51.303Z,26.48
2018-02-09T18:26:18.890Z,25.67
2018-02-09T18:28:46.443Z,26.10
2018-02-09T18:31:14.877Z,29.42
2018-02-09T18:33:42.511Z,26.58
2018-02-09T18:36:11.035Z,27.30
2018-02-09T18:38:38.609Z,21.50
2018-02-09T18:41:06.219Z,25.12
2018-02-09T18:43:33.837Z,26.85
2018-02-09T18:46:01.450Z,25.52
2018-02-09T18:48:29.042Z,26.55
2018-02-09T18:50:56.716Z,28.12
2018-02-09T18:53:24.402Z,21.33
2018-02-09T18:55:52.072Z,24.02
2018-02-09T18:58:20.484Z,25.55
2018-02-09T19:00:48.111Z,22.90
2018-02-09T19:03:16.449Z,23.20
2018-02-09T19:05:44.014Z,25.25
2018-02-09T19:08:11.628Z,22.92
2018-02-09T19:10:39.306Z,32.40
2018-02-09T19:13:07.615Z,23.02
2018-02-09T19:15:35.163Z,31.85
2018-02-09T19:18:02.888Z,26.90
2018-02-09T19:20:30.577Z,22.92
2018-02-09T19:22:58.162Z,22.27
2018-02-09T19:25:25.793Z,24.10
2018-02-09T19:27:53.393Z,24.40
2018-02-09T19:30:21.105Z,23.48
2018-02-09T19:32:48.695Z,23.55
2018-02-09T19:35:16.359Z,31.65
2018-02-09T19:37:43.941Z,31.70
2018-02-09T19:40:11.510Z,23.58
2018-02-09T19:42:39.129Z,27.13
2018-02-09T19:45:06.961Z,25.77
2018-02-09T19:47:35.302Z,24.90
2018-02-09T19:50:02.910Z,22.60
2018-02-09T19:52:30.614Z,25.58
2018-02-09T19:54:58.205Z,21.50
2018-02-09T19:57:25.778Z,19.87
2018-02-09T19:59:53.521Z,29.80
2018-02-09T20:02:21.247Z,24.02
2018-02-09T20:04:49.578Z,23.05
2018-02-09T20:07:17.169Z,23.20
2018-02-09T20:09:44.724Z,26.25
2018-02-09T20:12:12.363Z,28.50
2018-02-09T20:14:39.953Z,23.52
2018-02-09T20:17:07.517Z,24.40
2018-02-09T20:19:35.858Z,24.77
2018-02-09T20:22:03.626Z,25.65
2018-02-09T20:24:31.225Z,23.92
2018-02-09T20:26:59.609Z,31.60
2018-02-09T20:29:27.955Z,26.50
2018-02-09T20:31:55.642Z,25.08
2018-02-09T20:34:23.189Z,29.35
2018-02-09T20:36:50.777Z,28.17
2018-02-09T20:39:19.161Z,28.48
2018-02-09T20:41:47.518Z,26.67
2018-02-09T20:44:15.108Z,33.95
2018-02-09T20:46:43.685Z,34.63
2018-02-09T20:49:12.127Z,28.15
2018-02-09T20:51:39.907Z,25.88
2018-02-09T20:54:07.558Z,35.53
2018-02-09T20:56:35.410Z,32.65
2018-02-09T20:59:03.033Z,28.75
2018-02-09T21:01:31.366Z,30.17
2018-02-09T21:03:59.035Z,28.08
2018-02-09T21:06:26.921Z,30.48
2018-02-09T21:08:55.641Z,27.95
2018-02-09T21:11:24.154Z,30.60
2018-02-09T21:13:52.071Z,27.75
2018-02-09T21:16:21.697Z,29.90
2018-02-09T21:18:50.120Z,36.60
2018-02-09T21:21:18.020Z,24.98
2018-02-09T21:23:45.708Z,26.45
2018-02-09T21:26:13.468Z,27.75
2018-02-09T21:28:41.871Z,33.78
2018-02-09T21:31:09.643Z,31.15
2018-02-09T21:33:37.234Z,31.12
2018-02-09T21:36:06.047Z,37.20
2018-02-09T21:38:33.787Z,29.00
2018-02-09T21:41:01.562Z,27.65
2018-02-09T21:43:29.367Z,28.83
2018-02-09T21:45:57.053Z,36.05
2018-02-09T21:48:24.848Z,32.75
2018-02-09T21:50:52.554Z,31.27
2018-02-09T21:53:21.062Z,33.83
2018-02-09T21:55:48.780Z,34.17
2018-02-09T21:58:17.246Z,35.22
2018-02-09T22:00:45.717Z,35.33
2018-02-09T22:03:13.326Z,38.88
2018-02-09T22:05:41.875Z,44.80
2018-02-09T22:08:09.866Z,39.15
2018-02-09T22:10:37.523Z,39.80
2018-02-09T22:13:05.955Z,38.65
2018-02-09T22:15:33.506Z,30.62
2018-02-09T22:18:01.197Z,32.30
2018-02-09T22:20:28.769Z,39.63
2018-02-09T22:22:56.375Z,38.95
2018-02-09T22:25:24.700Z,36.47
2018-02-09T22:27:52.368Z,40.67
2018-02-09T22:30:19.925Z,32.28
2018-02-09T22:32:47.521Z,43.03
2018-02-09T22:35:15.889Z,36.45
2018-02-09T22:37:43.524Z,48.45
2018-02-09T22:40:11.375Z,42.25
2018-02-09T22:42:38.979Z,35.10
2018-02-09T22:45:06.545Z,38.10
2018-02-09T22:47:34.101Z,36.90
2018-02-09T22:50:01.687Z,36.33
2018-02-09T22:52:29.239Z,38.92
2018-02-09T22:54:56.826Z,34.95
2018-02-09T22:57:25.290Z,34.97
2018-02-09T22:59:52.843Z,36.83
2018-02-09T23:02:20.452Z,36.05
2018-02-09T23:04:48.039Z,39.10
2018-02-09T23:07:15.797Z,32.70
2018-02-09T23:09:43.361Z,40.12
2018-02-09T23:12:11.159Z,40.53
2018-02-09T23:14:38.725Z,31.73
2018-02-09T23:17:07.087Z,34.75
2018-02-09T23:19:34.772Z,37.42
2018-02-09T23:22:03.112Z,41.72
2018-02-09T23:24:30.706Z,39.83
2018-02-09T23:26:58.280Z,40.97
2018-02-09T23:29:26.645Z,37.38
2018-02-09T23:31:54.367Z,33.47
2018-02-09T23:34:22.555Z,34.92
2018-02-09T23:36:50.189Z,35.17
2018-02-09T23:39:17.784Z,34.67
2018-02-09T23:41:45.362Z,37.03
2018-02-09T23:44:12.923Z,47.42
2018-02-09T23:46:40.520Z,40.10
2018-02-09T23:49:08.845Z,36.53
2018-02-09T23:51:36.431Z,35.22
2018-02-09T23:54:04.107Z,38.00
2018-02-09T23:56:32.478Z,36.50
2018-02-09T23:59:00.048Z,39.78
